createdAt,value
2022-07-29T00:02:54.687Z,1.13
2022-07-29T00:07:03.549Z,1.30
2022-07-29T00:11:13.812Z,1.70
2022-07-29T00:15:22.660Z,1.43
2022-07-29T00:19:31.393Z,1.27
2022-07-29T00:23:41.834Z,1.33
2022-07-29T00:27:51.982Z,1.47
2022-07-29T00:32:00.889Z,1.83
2022-07-29T00:36:09.789Z,1.80
2022-07-29T00:40:18.584Z,2.10
2022-07-29T00:44:38.207Z,1.73
2022-07-29T00:48:46.915Z,1.67
2022-07-29T00:52:56.278Z,1.67
2022-07-29T00:57:06.548Z,1.53
2022-07-29T01:01:16.914Z,1.53
2022-07-29T01:05:49.952Z,2.00
2022-07-29T01:09:58.156Z,1.60
2022-07-29T01:14:09.148Z,1.43
2022-07-29T01:18:22.871Z,1.83
2022-07-29T01:22:42.795Z,1.70
2022-07-29T01:26:57.994Z,2.17
2022-07-29T01:31:10.427Z,2.00
2022-07-29T01:35:27.396Z,1.60
2022-07-29T01:39:39.949Z,1.70
2022-07-29T01:43:56.085Z,2.10
2022-07-29T01:48:14.384Z,2.37
2022-07-29T01:52:30.179Z,2.00
2022-07-29T01:56:40.417Z,2.00
2022-07-29T02:00:50.887Z,2.40
2022-07-29T02:05:04.072Z,2.17
2022-07-29T02:09:15.446Z,2.30
2022-07-29T02:13:26.214Z,2.20
2022-07-29T02:17:41.134Z,2.23
2022-07-29T02:21:53.930Z,2.00
2022-07-29T02:26:02.993Z,2.43
2022-07-29T02:30:13.567Z,2.00
2022-07-29T02:34:23.592Z,2.33
2022-07-29T02:38:51.648Z,2.13
2022-07-29T02:43:01.626Z,2.10
2022-07-29T02:47:18.579Z,2.40
2022-07-29T02:51:43.499Z,2.20
2022-07-29T02:55:59.147Z,1.80
2022-07-29T03:00:11.065Z,2.47
2022-07-29T03:04:23.208Z,2.40
2022-07-29T03:08:33.384Z,2.23
2022-07-29T03:12:44.409Z,2.47
2022-07-29T03:16:54.180Z,2.07
2022-07-29T03:21:03.289Z,2.40
2022-07-29T03:25:13.039Z,2.70
2022-07-29T03:29:23.154Z,2.77
2022-07-29T03:33:33.396Z,2.90
2022-07-29T03:37:42.086Z,2.83
2022-07-29T03:41:54.741Z,2.63
2022-07-29T03:46:09.561Z,2.57
2022-07-29T03:50:20.614Z,2.70
2022-07-29T03:54:29.556Z,2.13
2022-07-29T03:58:38.871Z,2.47
2022-07-29T04:02:50.862Z,2.63
2022-07-29T04:06:59.587Z,2.53
2022-07-29T04:11:08.585Z,2.20
2022-07-29T04:15:17.510Z,2.57
2022-07-29T04:19:27.661Z,2.33
2022-07-29T04:23:36.457Z,2.10
2022-07-29T04:28:05.124Z,2.37
2022-07-29T04:32:13.860Z,2.43
2022-07-29T04:36:29.401Z,2.50
2022-07-29T04:40:38.810Z,2.17
2022-07-29T04:44:48.914Z,2.63
2022-07-29T04:48:59.277Z,1.90
2022-07-29T04:53:09.949Z,2.27
2022-07-29T04:57:18.926Z,2.10
2022-07-29T05:01:27.700Z,2.20
2022-07-29T05:05:36.589Z,1.90
2022-07-29T05:09:46.813Z,1.90
2022-07-29T05:13:55.844Z,2.20
2022-07-29T05:18:04.763Z,2.13
2022-07-29T05:22:13.633Z,1.80
2022-07-29T05:26:23.707Z,1.93
2022-07-29T05:30:32.601Z,2.03
2022-07-29T05:34:50.420Z,1.77
2022-07-29T05:39:00.463Z,1.87
2022-07-29T05:43:10.775Z,1.70
2022-07-29T05:47:19.725Z,2.00
2022-07-29T05:51:28.646Z,1.80
2022-07-29T05:55:37.364Z,1.80
2022-07-29T05:59:49.684Z,2.40
2022-07-29T06:03:58.444Z,2.00
2022-07-29T06:08:08.409Z,2.00
2022-07-29T06:12:17.217Z,2.10
2022-07-29T06:16:30.280Z,1.83
2022-07-29T06:20:39.381Z,2.07
2022-07-29T06:24:48.045Z,2.07
2022-07-29T06:28:56.801Z,1.97
2022-07-29T06:33:07.485Z,2.27
2022-07-29T06:37:16.287Z,1.60
2022-07-29T06:41:25.075Z,2.00
2022-07-29T06:45:36.839Z,1.73
2022-07-29T06:49:47.074Z,1.50
2022-07-29T06:53:58.383Z,1.50
2022-07-29T06:58:12.030Z,2.13
2022-07-29T07:02:20.788Z,1.60
2022-07-29T07:06:30.973Z,1.53
2022-07-29T07:10:40.191Z,1.50
2022-07-29T07:14:49.385Z,1.50
2022-07-29T07:18:58.098Z,1.50
2022-07-29T07:23:08.347Z,1.40
2022-07-29T07:27:17.022Z,1.70
2022-07-29T07:31:26.165Z,1.47
2022-07-29T07:35:35.165Z,1.50
2022-07-29T07:39:45.288Z,1.57
2022-07-29T07:43:54.180Z,1.70
2022-07-29T07:48:03.747Z,1.60
2022-07-29T07:52:12.522Z,1.70
2022-07-29T07:56:22.844Z,1.33
2022-07-29T08:00:33.364Z,2.10
2022-07-29T08:04:42.699Z,1.30
2022-07-29T08:08:51.937Z,2.03
2022-07-29T08:13:04.895Z,1.80
2022-07-29T08:17:13.704Z,1.90
2022-07-29T08:21:22.380Z,1.90
2022-07-29T08:25:31.331Z,1.80
2022-07-29T08:29:42.359Z,1.67
2022-07-29T08:33:51.174Z,1.70
2022-07-29T08:37:59.931Z,1.50
2022-07-29T08:42:11.024Z,1.70
2022-07-29T08:46:24.444Z,1.47
2022-07-29T08:50:33.351Z,1.67
2022-07-29T08:54:43.283Z,1.53
2022-07-29T08:58:52.756Z,1.50
2022-07-29T09:03:04.252Z,1.50
2022-07-29T09:07:16.860Z,1.47
2022-07-29T09:11:25.784Z,1.67
2022-07-29T09:15:34.483Z,1.60
2022-07-29T09:19:45.352Z,1.50
2022-07-29T09:24:06.482Z,1.30
2022-07-29T09:28:17.563Z,1.37
2022-07-29T09:32:27.462Z,1.80
2022-07-29T09:36:43.756Z,1.30
2022-07-29T09:40:59.936Z,1.40
2022-07-29T09:45:15.321Z,2.17
2022-07-29T09:49:24.148Z,1.57
2022-07-29T09:53:36.103Z,1.60
2022-07-29T09:57:45.642Z,1.60
2022-07-29T10:01:55.384Z,1.63
2022-07-29T10:06:12.163Z,1.50
2022-07-29T10:10:27.463Z,1.50
2022-07-29T10:14:37.087Z,2.00
2022-07-29T10:18:47.990Z,1.63
2022-07-29T10:22:57.407Z,1.30
2022-07-29T10:27:09.178Z,1.40
2022-07-29T10:31:25.773Z,1.80
2022-07-29T10:35:51.956Z,1.87
2022-07-29T10:40:28.562Z,1.70
2022-07-29T10:44:42.080Z,1.60
2022-07-29T10:49:10.001Z,1.83
2022-07-29T10:53:20.189Z,1.60
2022-07-29T10:57:53.026Z,2.33
2022-07-29T11:02:15.959Z,2.47
2022-07-29T11:07:10.068Z,2.10
2022-07-29T11:11:44.192Z,3.00
2022-07-29T11:16:00.745Z,2.20
2022-07-29T11:20:36.506Z,2.50
2022-07-29T11:24:50.052Z,2.17
2022-07-29T11:29:05.118Z,2.10
2022-07-29T11:33:54.113Z,1.90
2022-07-29T11:38:31.962Z,1.57
2022-07-29T11:42:44.451Z,2.30
2022-07-29T11:46:53.997Z,2.63
2022-07-29T11:51:12.079Z,1.70
2022-07-29T11:55:32.651Z,1.90
2022-07-29T11:59:43.893Z,1.40
2022-07-29T12:04:06.846Z,1.60
2022-07-29T12:08:20.300Z,1.80
2022-07-29T12:12:30.987Z,2.30
2022-07-29T12:16:39.805Z,2.43
2022-07-29T12:20:50.491Z,1.83
2022-07-29T12:25:31.888Z,1.60
2022-07-29T12:29:35.892Z,1.73
2022-07-29T12:33:44.942Z,1.87
2022-07-29T12:37:53.965Z,2.13
2022-07-29T12:42:15.001Z,1.80
2022-07-29T12:46:28.703Z,1.97
2022-07-29T12:50:38.276Z,1.77
2022-07-29T12:54:50.127Z,2.10
2022-07-29T12:59:00.627Z,1.63
2022-07-29T13:03:10.847Z,1.60
2022-07-29T13:07:54.164Z,1.70
2022-07-29T13:11:56.390Z,1.80
2022-07-29T13:16:10.263Z,1.90
2022-07-29T13:20:20.353Z,1.70
2022-07-29T13:24:29.052Z,2.00
2022-07-29T13:28:38.873Z,2.23
2022-07-29T13:32:47.931Z,1.63
2022-07-29T13:36:58.040Z,1.83
2022-07-29T13:41:06.795Z,1.73
2022-07-29T13:45:15.937Z,1.90
2022-07-29T13:49:24.903Z,1.80
2022-07-29T13:53:35.195Z,2.07
2022-07-29T13:57:43.886Z,1.50
2022-07-29T14:01:52.708Z,1.90
2022-07-29T14:06:01.872Z,2.00
2022-07-29T14:10:14.335Z,1.60
2022-07-29T14:14:25.940Z,1.47
2022-07-29T14:18:34.646Z,1.90
2022-07-29T14:22:45.048Z,1.70
2022-07-29T14:26:56.022Z,1.63
2022-07-29T14:31:04.819Z,1.60
2022-07-29T14:35:13.548Z,1.70
2022-07-29T14:39:22.219Z,2.10
2022-07-29T14:43:33.200Z,2.10
2022-07-29T14:47:43.061Z,2.03
2022-07-29T14:51:52.312Z,1.83
2022-07-29T14:56:20.857Z,1.60
2022-07-29T15:00:33.395Z,1.70
2022-07-29T15:04:42.132Z,1.70
2022-07-29T15:08:50.850Z,1.80
2022-07-29T15:12:59.610Z,1.80
2022-07-29T15:17:09.946Z,1.70
2022-07-29T15:21:18.713Z,1.67
2022-07-29T15:25:28.514Z,1.73
2022-07-29T15:29:37.304Z,1.57
2022-07-29T15:33:47.811Z,1.87
2022-07-29T15:37:56.528Z,1.73
2022-07-29T15:42:05.717Z,1.60
2022-07-29T15:46:33.434Z,1.63
2022-07-29T15:50:47.135Z,1.67
2022-07-29T15:54:57.117Z,1.80
2022-07-29T15:59:05.866Z,1.63
2022-07-29T16:03:15.011Z,2.13
2022-07-29T16:07:25.429Z,2.20
2022-07-29T16:11:40.363Z,1.87
2022-07-29T16:16:02.648Z,1.80
2022-07-29T16:20:12.633Z,2.00
2022-07-29T16:24:24.212Z,1.83
2022-07-29T16:28:33.347Z,1.43
2022-07-29T16:32:42.168Z,1.80
2022-07-29T16:36:50.994Z,1.53
2022-07-29T16:41:01.187Z,1.80
2022-07-29T16:45:11.025Z,1.30
2022-07-29T16:49:19.904Z,1.87
2022-07-29T16:53:30.223Z,1.70
2022-07-29T16:57:42.132Z,1.47
2022-07-29T17:01:51.087Z,1.83
2022-07-29T17:05:59.793Z,1.90
2022-07-29T17:10:09.368Z,1.50
2022-07-29T17:14:19.675Z,1.90
2022-07-29T17:18:33.015Z,1.97
2022-07-29T17:22:43.137Z,1.73
2022-07-29T17:26:52.646Z,1.80
2022-07-29T17:31:03.382Z,1.57
2022-07-29T17:35:25.885Z,1.67
2022-07-29T17:39:35.787Z,1.73
2022-07-29T17:43:44.749Z,1.53
2022-07-29T17:47:54.916Z,1.60
2022-07-29T17:52:03.811Z,1.50
2022-07-29T17:56:12.721Z,1.47
2022-07-29T18:00:23.146Z,1.90
2022-07-29T18:04:33.336Z,1.50
2022-07-29T18:08:42.253Z,1.60
2022-07-29T18:12:51.221Z,1.90
2022-07-29T18:17:00.542Z,1.80
2022-07-29T18:21:10.936Z,2.00
2022-07-29T18:25:19.722Z,1.60
2022-07-29T18:29:30.555Z,1.50
2022-07-29T18:33:40.554Z,1.60
2022-07-29T18:38:00.636Z,1.63
2022-07-29T18:42:11.284Z,1.73
2022-07-29T18:46:20.099Z,1.80
2022-07-29T18:50:30.647Z,1.50
2022-07-29T18:54:40.793Z,1.67
2022-07-29T18:58:49.644Z,2.37
2022-07-29T19:02:58.471Z,1.70
2022-07-29T19:07:07.297Z,1.77
2022-07-29T19:11:17.486Z,1.50
2022-07-29T19:15:26.650Z,1.70
2022-07-29T19:19:35.765Z,1.47
2022-07-29T19:24:04.175Z,1.57
2022-07-29T19:28:14.860Z,1.40
2022-07-29T19:32:24.960Z,1.43
2022-07-29T19:36:34.447Z,1.50
2022-07-29T19:40:43.351Z,1.67
2022-07-29T19:44:53.590Z,1.50
2022-07-29T19:49:02.347Z,1.93
2022-07-29T19:53:12.796Z,1.90
2022-07-29T19:57:21.439Z,2.10
2022-07-29T20:01:33.091Z,2.10
2022-07-29T20:05:42.229Z,2.23
2022-07-29T20:09:56.795Z,2.17
2022-07-29T20:14:06.616Z,1.73
2022-07-29T20:18:17.014Z,2.03
2022-07-29T20:22:25.827Z,2.00
2022-07-29T20:26:34.525Z,1.90
2022-07-29T20:30:43.377Z,2.00
2022-07-29T20:34:53.831Z,1.90
2022-07-29T20:39:02.580Z,1.77
2022-07-29T20:43:11.613Z,1.73
2022-07-29T20:47:21.054Z,1.50
2022-07-29T20:51:31.283Z,2.40
2022-07-29T20:55:52.291Z,1.47
2022-07-29T21:00:00.953Z,1.70
2022-07-29T21:04:09.806Z,1.80
2022-07-29T21:08:19.991Z,1.40
2022-07-29T21:12:30.252Z,1.30
2022-07-29T21:16:38.929Z,1.40
2022-07-29T21:20:47.754Z,1.53
2022-07-29T21:24:58.069Z,1.70
2022-07-29T21:29:06.812Z,1.37
2022-07-29T21:33:15.619Z,1.70
2022-07-29T21:37:24.335Z,1.53
2022-07-29T21:41:34.582Z,1.50
2022-07-29T21:45:44.132Z,1.47
2022-07-29T21:49:53.194Z,1.60
2022-07-29T21:54:01.912Z,1.47
2022-07-29T21:58:12.521Z,2.00
2022-07-29T22:02:21.303Z,1.57
2022-07-29T22:06:29.995Z,1.73
2022-07-29T22:10:38.869Z,1.83
2022-07-29T22:14:49.024Z,1.30
2022-07-29T22:18:58.413Z,1.47
2022-07-29T22:23:07.145Z,1.70
2022-07-29T22:27:15.984Z,1.80
2022-07-29T22:31:26.726Z,2.13
2022-07-29T22:35:36.183Z,2.13
2022-07-29T22:39:44.976Z,2.00
2022-07-29T22:43:53.809Z,1.70
2022-07-29T22:48:03.983Z,2.23
2022-07-29T22:52:13.028Z,2.47
2022-07-29T22:56:23.982Z,2.30
2022-07-29T23:00:33.303Z,2.83
2022-07-29T23:04:43.520Z,2.53
2022-07-29T23:08:52.411Z,2.60
2022-07-29T23:13:01.498Z,2.30
2022-07-29T23:17:10.693Z,2.87
2022-07-29T23:21:21.805Z,2.90
2022-07-29T23:25:31.116Z,2.73
2022-07-29T23:29:40.919Z,2.80
2022-07-29T23:33:51.089Z,2.10
2022-07-29T23:38:02.045Z,2.33
2022-07-29T23:42:11.576Z,2.23
2022-07-29T23:46:23.873Z,2.63
2022-07-29T23:50:34.144Z,2.80
2022-07-29T23:54:45.880Z,2.73
2022-07-29T23:58:56.656Z,2.40
